createdAt,value
2019-01-28T00:01:41.497Z,3.30
2019-01-28T00:04:10.077Z,3.30
2019-01-28T00:06:40.130Z,3.30
2019-01-28T00:09:08.681Z,3.40
2019-01-28T00:11:37.244Z,3.30
2019-01-28T00:14:06.120Z,3.40
2019-01-28T00:16:34.691Z,3.40
2019-01-28T00:19:03.302Z,3.40
2019-01-28T00:21:31.885Z,3.40
2019-01-28T00:24:00.462Z,3.40
2019-01-28T00:26:31.005Z,3.40
2019-01-28T00:28:59.559Z,3.40
2019-01-28T00:31:28.150Z,3.40
2019-01-28T00:33:56.714Z,3.40
2019-01-28T00:36:25.289Z,3.40
2019-01-28T00:38:53.845Z,3.30
2019-01-28T00:41:22.414Z,3.40
2019-01-28T00:43:50.992Z,3.40
2019-01-28T00:46:19.572Z,3.30
2019-01-28T00:48:48.144Z,3.30
2019-01-28T00:51:16.714Z,3.30
2019-01-28T00:53:45.278Z,3.20
2019-01-28T00:56:13.829Z,3.10
2019-01-28T00:58:42.404Z,3.10
2019-01-28T01:01:11.147Z,3.10
2019-01-28T01:03:39.718Z,3.00
2019-01-28T01:06:08.280Z,3.10
2019-01-28T01:08:36.842Z,3.10
2019-01-28T01:11:05.402Z,3.10
2019-01-28T01:13:35.074Z,3.10
2019-01-28T01:16:03.641Z,3.10
2019-01-28T01:18:32.206Z,3.10
2019-01-28T01:21:00.776Z,3.10
2019-01-28T01:23:29.357Z,3.20
2019-01-28T01:25:57.918Z,3.20
2019-01-28T01:28:26.485Z,3.20
2019-01-28T01:30:55.045Z,3.20
2019-01-28T01:33:23.790Z,3.30
2019-01-28T01:35:52.356Z,3.20
2019-01-28T01:38:20.926Z,3.30
2019-01-28T01:40:49.483Z,3.30
2019-01-28T01:43:18.049Z,3.30
2019-01-28T01:45:46.614Z,3.30
2019-01-28T01:48:15.175Z,3.30
2019-01-28T01:50:43.754Z,3.30
2019-01-28T01:53:12.346Z,3.30
2019-01-28T01:55:40.914Z,3.30
2019-01-28T01:58:09.490Z,3.30
2019-01-28T02:00:38.325Z,3.30
2019-01-28T02:03:06.897Z,3.30
2019-01-28T02:05:35.466Z,3.30
2019-01-28T02:08:04.044Z,3.30
2019-01-28T02:10:32.597Z,3.30
2019-01-28T02:13:01.150Z,3.30
2019-01-28T02:15:29.718Z,3.20
2019-01-28T02:17:58.268Z,3.30
2019-01-28T02:20:28.219Z,3.30
2019-01-28T02:22:56.785Z,3.30
2019-01-28T02:25:25.352Z,3.30
2019-01-28T02:27:53.954Z,3.30
2019-01-28T02:30:22.553Z,3.30
2019-01-28T02:32:51.113Z,3.30
2019-01-28T02:35:19.676Z,3.30
2019-01-28T02:37:48.251Z,3.40
2019-01-28T02:40:17.573Z,3.30
2019-01-28T02:42:47.085Z,3.30
2019-01-28T02:45:16.265Z,3.30
2019-01-28T02:47:44.841Z,3.30
2019-01-28T02:50:15.282Z,3.20
2019-01-28T02:52:43.869Z,3.30
2019-01-28T02:55:12.561Z,3.30
2019-01-28T02:57:41.118Z,3.30
2019-01-28T03:00:14.535Z,3.30
2019-01-28T03:02:43.113Z,3.20
2019-01-28T03:05:11.672Z,3.30
2019-01-28T03:07:40.237Z,3.20
2019-01-28T03:10:12.350Z,3.20
2019-01-28T03:12:40.906Z,3.20
2019-01-28T03:15:11.080Z,3.20
2019-01-28T03:17:39.648Z,3.20
2019-01-28T03:20:09.662Z,3.10
2019-01-28T03:22:38.227Z,3.10
2019-01-28T03:25:07.736Z,3.10
2019-01-28T03:27:36.299Z,3.10
2019-01-28T03:30:06.451Z,3.10
2019-01-28T03:32:35.038Z,3.10
2019-01-28T03:35:03.704Z,3.10
2019-01-28T03:37:32.268Z,3.10
2019-01-28T03:40:00.846Z,3.10
2019-01-28T03:42:31.128Z,3.10
2019-01-28T03:44:59.688Z,3.10
2019-01-28T03:47:28.246Z,3.00
2019-01-28T03:49:56.820Z,3.10
2019-01-28T03:52:26.063Z,3.00
2019-01-28T03:54:54.619Z,3.00
2019-01-28T03:57:23.182Z,3.00
2019-01-28T03:59:51.748Z,3.10
2019-01-28T04:02:20.369Z,3.10
2019-01-28T04:04:49.203Z,3.10
2019-01-28T04:07:17.763Z,3.10
2019-01-28T04:09:46.326Z,3.10
2019-01-28T04:12:15.385Z,3.10
2019-01-28T04:14:43.945Z,3.10
2019-01-28T04:17:12.511Z,3.00
2019-01-28T04:19:41.064Z,3.10
2019-01-28T04:22:09.634Z,3.10
2019-01-28T04:24:38.205Z,3.10
2019-01-28T04:27:07.981Z,3.10
2019-01-28T04:29:36.534Z,3.10
2019-01-28T04:32:05.329Z,3.10
2019-01-28T04:34:33.891Z,3.10
2019-01-28T04:37:02.469Z,3.00
2019-01-28T04:39:31.034Z,3.00
2019-01-28T04:41:59.623Z,3.00
2019-01-28T04:44:28.189Z,3.00
2019-01-28T04:46:57.349Z,3.00
2019-01-28T04:49:25.920Z,2.90
2019-01-28T04:51:54.506Z,3.00
2019-01-28T04:54:23.078Z,2.90
2019-01-28T04:56:51.658Z,2.90
2019-01-28T04:59:20.244Z,2.80
2019-01-28T05:01:48.825Z,2.90
2019-01-28T05:04:17.387Z,2.80
2019-01-28T05:06:45.949Z,2.90
2019-01-28T05:09:14.518Z,2.80
2019-01-28T05:11:43.077Z,2.90
2019-01-28T05:14:11.635Z,2.90
2019-01-28T05:16:40.213Z,2.90
2019-01-28T05:19:08.787Z,2.90
2019-01-28T05:21:37.358Z,2.90
2019-01-28T05:24:05.929Z,3.00
2019-01-28T05:26:34.477Z,2.90
2019-01-28T05:29:03.071Z,2.90
2019-01-28T05:31:31.617Z,2.90
2019-01-28T05:34:00.992Z,2.90
2019-01-28T05:36:29.564Z,2.90
2019-01-28T05:38:58.126Z,2.90
2019-01-28T05:41:26.682Z,2.90
2019-01-28T05:43:55.279Z,2.90
2019-01-28T05:46:23.865Z,2.90
2019-01-28T05:48:52.447Z,2.80
2019-01-28T05:51:21.034Z,2.90
2019-01-28T05:53:49.609Z,2.90
2019-01-28T05:56:18.176Z,2.90
2019-01-28T05:58:46.754Z,2.90
2019-01-28T06:01:15.314Z,2.90
2019-01-28T06:03:43.894Z,2.90
2019-01-28T06:06:12.450Z,2.90
2019-01-28T06:08:41.004Z,2.90
2019-01-28T06:11:09.566Z,2.90
2019-01-28T06:13:38.146Z,2.90
2019-01-28T06:16:07.921Z,3.00
2019-01-28T06:18:36.486Z,2.90
2019-01-28T06:21:05.159Z,2.90
2019-01-28T06:23:33.773Z,2.90
2019-01-28T06:26:02.325Z,3.00
2019-01-28T06:28:30.906Z,3.00
2019-01-28T06:30:59.468Z,3.00
2019-01-28T06:33:28.037Z,3.00
2019-01-28T06:35:56.612Z,3.10
2019-01-28T06:38:25.178Z,3.00
2019-01-28T06:40:53.735Z,3.10
2019-01-28T06:43:22.314Z,3.10
2019-01-28T06:45:50.896Z,3.10
2019-01-28T06:48:19.453Z,3.20
2019-01-28T06:50:48.034Z,3.10
2019-01-28T06:53:16.594Z,3.20
2019-01-28T06:55:45.166Z,3.10
2019-01-28T06:58:13.725Z,3.20
2019-01-28T07:00:42.299Z,3.20
2019-01-28T07:03:10.854Z,3.20
2019-01-28T07:05:39.443Z,3.20
2019-01-28T07:08:08.008Z,3.20
2019-01-28T07:10:37.144Z,3.20
2019-01-28T07:13:05.842Z,3.20
2019-01-28T07:15:34.417Z,3.20
2019-01-28T07:18:02.978Z,3.10
2019-01-28T07:20:31.946Z,3.10
2019-01-28T07:23:01.029Z,3.10
2019-01-28T07:25:29.693Z,3.10
2019-01-28T07:28:09.202Z,3.10
2019-01-28T07:30:38.521Z,3.10
2019-01-28T07:33:07.106Z,3.10
2019-01-28T07:35:35.698Z,3.00
2019-01-28T07:38:04.264Z,3.10
2019-01-28T07:40:32.836Z,3.00
2019-01-28T07:43:01.392Z,3.10
2019-01-28T07:45:34.532Z,3.00
2019-01-28T07:48:03.403Z,3.00
2019-01-28T07:50:32.137Z,3.00
2019-01-28T07:53:00.698Z,3.00
2019-01-28T07:55:29.268Z,3.00
2019-01-28T07:57:57.906Z,3.00
2019-01-28T08:00:27.602Z,2.90
2019-01-28T08:02:56.177Z,2.90
2019-01-28T08:05:24.735Z,2.90
2019-01-28T08:07:54.214Z,2.80
2019-01-28T08:10:22.973Z,2.80
2019-01-28T08:12:51.549Z,2.80
2019-01-28T08:15:21.263Z,2.80
2019-01-28T08:17:49.829Z,2.80
2019-01-28T08:20:19.053Z,2.80
2019-01-28T08:22:47.615Z,2.80
2019-01-28T08:25:17.336Z,2.80
2019-01-28T08:27:45.906Z,2.70
2019-01-28T08:30:25.856Z,2.70
2019-01-28T08:32:54.442Z,2.70
2019-01-28T08:35:23.006Z,2.70
2019-01-28T08:37:51.561Z,2.60
2019-01-28T08:40:21.073Z,2.60
2019-01-28T08:42:49.641Z,2.60
2019-01-28T08:45:18.209Z,2.60
2019-01-28T08:47:46.784Z,2.50
2019-01-28T08:50:18.103Z,2.50
2019-01-28T08:52:46.678Z,2.50
2019-01-28T08:55:17.162Z,2.50
2019-01-28T08:57:45.730Z,2.50
2019-01-28T09:00:17.377Z,2.50
2019-01-28T09:02:45.950Z,2.50
2019-01-28T09:05:14.574Z,2.50
2019-01-28T09:07:43.141Z,2.50
2019-01-28T09:10:12.326Z,2.50
2019-01-28T09:12:40.878Z,2.50
2019-01-28T09:15:10.943Z,2.50
2019-01-28T09:17:39.501Z,2.50
2019-01-28T09:20:11.351Z,2.50
2019-01-28T09:22:40.127Z,2.60
2019-01-28T09:25:09.886Z,2.60
2019-01-28T09:27:38.722Z,2.60
2019-01-28T09:30:09.014Z,2.70
2019-01-28T09:32:37.578Z,2.70
2019-01-28T09:35:07.194Z,2.80
2019-01-28T09:37:35.753Z,2.80
2019-01-28T09:40:05.889Z,2.80
2019-01-28T09:42:34.451Z,2.80
2019-01-28T09:45:03.271Z,2.90
2019-01-28T09:47:31.840Z,2.90
2019-01-28T09:50:00.401Z,2.90
2019-01-28T09:52:28.962Z,3.00
2019-01-28T09:54:57.546Z,3.00
2019-01-28T09:57:26.106Z,3.10
2019-01-28T09:59:54.673Z,3.10
2019-01-28T10:02:23.704Z,3.10
2019-01-28T10:04:52.485Z,3.20
2019-01-28T10:07:21.058Z,3.20
2019-01-28T10:09:49.630Z,3.30
2019-01-28T10:12:18.202Z,3.30
2019-01-28T10:14:46.766Z,3.40
2019-01-28T10:17:15.319Z,3.40
2019-01-28T10:19:43.979Z,3.50
2019-01-28T10:22:12.535Z,3.60
2019-01-28T10:24:41.090Z,3.60
2019-01-28T10:27:09.658Z,3.70
2019-01-28T10:29:38.226Z,3.80
2019-01-28T10:32:06.810Z,3.90
2019-01-28T10:34:35.373Z,3.90
2019-01-28T10:37:03.939Z,3.90
2019-01-28T10:39:32.502Z,4.00
2019-01-28T10:42:02.047Z,4.10
2019-01-28T10:44:30.624Z,4.10
2019-01-28T10:46:59.196Z,4.20
2019-01-28T10:49:27.751Z,4.40
2019-01-28T10:51:58.091Z,4.40
2019-01-28T10:54:26.767Z,4.40
2019-01-28T10:56:55.334Z,4.50
2019-01-28T10:59:23.901Z,4.70
2019-01-28T11:01:52.488Z,4.80
2019-01-28T11:04:21.098Z,4.90
2019-01-28T11:06:49.668Z,4.90
2019-01-28T11:09:19.200Z,4.80
2019-01-28T11:11:47.765Z,4.80
2019-01-28T11:14:16.350Z,4.70
2019-01-28T11:16:44.933Z,4.70
2019-01-28T11:19:13.517Z,4.80
2019-01-28T11:21:42.153Z,4.80
2019-01-28T11:24:10.827Z,4.90
2019-01-28T11:26:39.566Z,4.90
2019-01-28T11:29:08.194Z,5.20
2019-01-28T11:31:36.831Z,5.30
2019-01-28T11:34:05.647Z,5.70
2019-01-28T11:36:34.356Z,6.20
2019-01-28T11:39:03.030Z,6.50
2019-01-28T11:41:31.720Z,6.70
2019-01-28T11:44:00.504Z,6.90
2019-01-28T11:46:29.100Z,6.70
2019-01-28T11:49:05.551Z,6.30
2019-01-28T11:51:27.946Z,6.30
2019-01-28T11:53:57.147Z,6.00
2019-01-28T11:56:25.713Z,5.80
2019-01-28T11:58:54.285Z,5.60
2019-01-28T12:01:32.613Z,5.50
2019-01-28T12:04:02.202Z,5.50
2019-01-28T12:06:30.769Z,5.40
2019-01-28T12:08:59.333Z,5.60
2019-01-28T12:11:27.897Z,5.40
2019-01-28T12:13:56.482Z,5.40
2019-01-28T12:16:25.057Z,5.30
2019-01-28T12:18:53.637Z,5.30
2019-01-28T12:21:22.184Z,5.10
2019-01-28T12:23:50.766Z,5.20
2019-01-28T12:26:20.182Z,5.30
2019-01-28T12:28:48.747Z,5.30
2019-01-28T12:31:17.318Z,5.20
2019-01-28T12:33:45.881Z,5.10
2019-01-28T12:36:14.447Z,5.20
2019-01-28T12:38:43.068Z,5.00
2019-01-28T12:41:17.343Z,5.00
2019-01-28T12:43:42.069Z,5.20
2019-01-28T12:46:10.646Z,5.20
2019-01-28T12:48:39.222Z,5.20
2019-01-28T12:51:07.801Z,5.20
2019-01-28T12:53:37.656Z,5.20
2019-01-28T12:56:06.233Z,5.20
2019-01-28T12:58:34.806Z,5.10
2019-01-28T13:01:04.827Z,5.20
2019-01-28T13:03:33.425Z,5.20
2019-01-28T13:06:01.985Z,5.10
2019-01-28T13:08:30.555Z,5.10
2019-01-28T13:10:59.121Z,5.00
2019-01-28T13:13:27.686Z,4.80
2019-01-28T13:15:56.246Z,4.80
2019-01-28T13:18:24.799Z,4.70
2019-01-28T13:20:53.387Z,4.60
2019-01-28T13:23:21.966Z,4.70
2019-01-28T13:25:50.549Z,4.60
2019-01-28T13:28:19.122Z,4.70
2019-01-28T13:30:47.694Z,4.70
2019-01-28T13:33:17.268Z,4.70
2019-01-28T13:35:45.820Z,4.80
2019-01-28T13:38:14.383Z,4.80
2019-01-28T13:40:42.981Z,4.90
2019-01-28T13:43:11.550Z,4.80
2019-01-28T13:45:40.143Z,4.70
2019-01-28T13:48:11.654Z,4.70
2019-01-28T13:50:40.235Z,4.70
2019-01-28T13:53:08.798Z,4.70
2019-01-28T13:55:37.372Z,4.90
2019-01-28T13:58:06.150Z,4.80
2019-01-28T14:00:36.052Z,4.90
2019-01-28T14:03:04.646Z,4.90
2019-01-28T14:05:33.227Z,5.00
2019-01-28T14:08:01.780Z,5.10
2019-01-28T14:10:30.365Z,5.20
2019-01-28T14:12:58.954Z,5.10
2019-01-28T14:15:33.034Z,5.30
2019-01-28T14:18:01.596Z,5.30
2019-01-28T14:20:31.334Z,5.30
2019-01-28T14:22:59.903Z,5.30
2019-01-28T14:25:28.456Z,5.30
2019-01-28T14:27:57.033Z,5.30
2019-01-28T14:30:34.065Z,5.30
2019-01-28T14:33:02.654Z,5.20
2019-01-28T14:35:31.439Z,5.20
2019-01-28T14:38:00.045Z,5.10
2019-01-28T14:40:28.626Z,5.20
2019-01-28T14:42:57.183Z,5.10
2019-01-28T14:45:25.762Z,5.10
2019-01-28T14:47:54.318Z,5.20
2019-01-28T14:50:30.727Z,5.10
2019-01-28T14:52:59.303Z,5.10
2019-01-28T14:55:27.866Z,5.10
2019-01-28T14:57:56.547Z,5.10
2019-01-28T15:00:27.604Z,5.00
2019-01-28T15:02:56.166Z,5.10
2019-01-28T15:05:25.204Z,5.10
2019-01-28T15:07:53.886Z,5.00
2019-01-28T15:10:22.482Z,4.90
2019-01-28T15:12:51.046Z,4.90
2019-01-28T15:15:21.978Z,4.90
2019-01-28T15:17:50.555Z,4.80
2019-01-28T15:20:19.127Z,4.80
2019-01-28T15:22:48.594Z,4.80
2019-01-28T15:25:17.186Z,4.70
2019-01-28T15:27:45.766Z,4.80
2019-01-28T15:30:20.033Z,4.90
2019-01-28T15:32:48.602Z,4.80
2019-01-28T15:35:17.153Z,4.80
2019-01-28T15:37:46.058Z,4.80
2019-01-28T15:40:17.346Z,4.80
2019-01-28T15:42:47.166Z,4.80
2019-01-28T15:45:21.622Z,4.60
2019-01-28T15:47:51.203Z,4.60
2019-01-28T15:50:19.909Z,4.40
2019-01-28T15:52:48.487Z,4.40
2019-01-28T15:55:20.226Z,4.20
2019-01-28T15:57:48.785Z,4.10
2019-01-28T16:00:20.163Z,4.20
2019-01-28T16:02:48.745Z,4.10
2019-01-28T16:05:17.319Z,4.20
2019-01-28T16:07:46.054Z,4.20
2019-01-28T16:10:15.812Z,4.20
2019-01-28T16:12:44.373Z,4.20
2019-01-28T16:15:26.114Z,4.20
2019-01-28T16:17:54.682Z,4.20
2019-01-28T16:20:23.304Z,4.20
2019-01-28T16:22:51.894Z,4.20
2019-01-28T16:25:21.065Z,4.30
2019-01-28T16:27:49.627Z,4.30
2019-01-28T16:30:26.090Z,4.30
2019-01-28T16:32:51.038Z,4.40
2019-01-28T16:35:19.882Z,4.30
2019-01-28T16:37:48.591Z,4.30
2019-01-28T16:40:18.694Z,4.10
2019-01-28T16:42:47.266Z,4.10
2019-01-28T16:45:16.321Z,4.10
2019-01-28T16:47:44.917Z,4.10
2019-01-28T16:50:16.087Z,4.00
2019-01-28T16:52:45.685Z,4.00
2019-01-28T16:55:14.286Z,4.00
2019-01-28T16:57:43.373Z,4.00
2019-01-28T17:00:17.605Z,4.00
2019-01-28T17:02:46.192Z,4.00
2019-01-28T17:05:15.020Z,4.00
2019-01-28T17:07:43.586Z,4.00
2019-01-28T17:10:13.415Z,3.90
2019-01-28T17:12:42.136Z,3.90
2019-01-28T17:15:11.970Z,3.90
2019-01-28T17:17:40.535Z,4.00
2019-01-28T17:20:11.717Z,4.00
2019-01-28T17:22:40.309Z,3.90
2019-01-28T17:25:11.342Z,4.00
2019-01-28T17:27:39.915Z,4.00
2019-01-28T17:30:23.069Z,4.00
2019-01-28T17:32:51.899Z,3.90
2019-01-28T17:35:20.696Z,3.90
2019-01-28T17:37:49.266Z,4.00
2019-01-28T17:40:18.042Z,4.00
2019-01-28T17:42:46.606Z,4.00
2019-01-28T17:45:16.519Z,4.00
2019-01-28T17:47:45.166Z,3.90
2019-01-28T17:50:14.029Z,3.80
2019-01-28T17:52:42.601Z,3.80
2019-01-28T17:55:11.210Z,3.80
2019-01-28T17:57:39.770Z,3.80
2019-01-28T18:00:13.153Z,3.80
2019-01-28T18:02:42.217Z,3.80
2019-01-28T18:05:12.325Z,3.70
2019-01-28T18:07:41.261Z,3.80
2019-01-28T18:10:11.530Z,3.80
2019-01-28T18:12:41.152Z,3.70
2019-01-28T18:15:13.018Z,3.80
2019-01-28T18:17:42.246Z,3.80
2019-01-28T18:20:13.527Z,3.80
2019-01-28T18:22:47.962Z,3.80
2019-01-28T18:25:21.806Z,3.70
2019-01-28T18:27:52.025Z,3.70
2019-01-28T18:30:27.329Z,3.70
2019-01-28T18:32:56.054Z,3.70
2019-01-28T18:35:24.780Z,3.70
2019-01-28T18:37:53.375Z,3.70
2019-01-28T18:40:22.293Z,3.80
2019-01-28T18:42:50.913Z,3.80
2019-01-28T18:45:19.562Z,3.90
2019-01-28T18:47:48.140Z,3.90
2019-01-28T18:50:17.055Z,3.90
2019-01-28T18:52:45.622Z,3.90
2019-01-28T18:55:14.746Z,3.90
2019-01-28T18:57:43.297Z,3.80
2019-01-28T19:00:17.821Z,3.70
2019-01-28T19:02:46.400Z,3.70
2019-01-28T19:05:26.453Z,3.70
2019-01-28T19:07:58.673Z,3.80
2019-01-28T19:10:36.101Z,3.80
2019-01-28T19:13:12.633Z,3.80
2019-01-28T19:15:49.633Z,3.70
2019-01-28T19:18:25.182Z,3.70
2019-01-28T19:21:08.216Z,3.80
2019-01-28T19:23:36.764Z,3.70
2019-01-28T19:26:05.354Z,3.80
2019-01-28T19:28:33.917Z,3.80
2019-01-28T19:31:02.512Z,3.80
2019-01-28T19:33:31.066Z,3.80
2019-01-28T19:35:59.637Z,3.70
2019-01-28T19:38:28.208Z,3.80
2019-01-28T19:40:56.775Z,3.80
2019-01-28T19:43:25.394Z,3.80
2019-01-28T19:45:55.024Z,3.80
2019-01-28T19:48:23.590Z,3.80
2019-01-28T19:50:54.090Z,3.80
2019-01-28T19:53:22.793Z,3.70
2019-01-28T19:55:51.372Z,3.70
2019-01-28T19:58:19.958Z,3.70
2019-01-28T20:00:48.526Z,3.70
2019-01-28T20:03:17.113Z,3.70
2019-01-28T20:05:45.683Z,3.70
2019-01-28T20:08:15.138Z,3.70
2019-01-28T20:10:43.908Z,3.70
2019-01-28T20:13:13.208Z,3.60
2019-01-28T20:15:41.792Z,3.50
2019-01-28T20:18:11.635Z,3.50
2019-01-28T20:20:40.208Z,3.50
2019-01-28T20:23:08.800Z,3.40
2019-01-28T20:25:37.372Z,3.40
2019-01-28T20:28:05.988Z,3.40
2019-01-28T20:30:34.550Z,3.30
2019-01-28T20:33:03.182Z,3.40
2019-01-28T20:35:32.066Z,3.40
2019-01-28T20:38:00.665Z,3.40
2019-01-28T20:40:29.249Z,3.40
2019-01-28T20:42:58.242Z,3.40
2019-01-28T20:45:26.858Z,3.30
2019-01-28T20:47:56.575Z,3.40
2019-01-28T20:50:27.552Z,3.40
2019-01-28T20:52:56.268Z,3.40
2019-01-28T20:55:24.891Z,3.40
2019-01-28T20:57:53.514Z,3.40
2019-01-28T21:00:23.694Z,3.50
2019-01-28T21:02:53.206Z,3.50
2019-01-28T21:05:21.827Z,3.60
2019-01-28T21:07:50.429Z,3.60
2019-01-28T21:10:19.597Z,3.60
2019-01-28T21:12:48.235Z,3.50
2019-01-28T21:15:17.193Z,3.50
2019-01-28T21:17:46.747Z,3.50
2019-01-28T21:20:16.661Z,3.40
2019-01-28T21:22:45.485Z,3.50
2019-01-28T21:25:16.378Z,3.40
2019-01-28T21:27:44.938Z,3.50
2019-01-28T21:30:16.564Z,3.50
2019-01-28T21:32:45.170Z,3.50
2019-01-28T21:35:13.774Z,3.40
2019-01-28T21:37:50.690Z,3.50
2019-01-28T21:40:19.262Z,3.40
2019-01-28T21:42:47.834Z,3.40
2019-01-28T21:45:16.557Z,3.50
2019-01-28T21:47:53.447Z,3.50
2019-01-28T21:50:24.149Z,3.50
2019-01-28T21:52:52.885Z,3.50
2019-01-28T21:55:23.170Z,3.40
2019-01-28T21:57:51.860Z,3.40
2019-01-28T22:00:20.883Z,3.50
2019-01-28T22:02:50.764Z,3.50
2019-01-28T22:05:19.288Z,3.50
2019-01-28T22:07:47.853Z,3.40
2019-01-28T22:10:16.451Z,3.40
2019-01-28T22:12:45.009Z,3.40
2019-01-28T22:15:15.241Z,3.40
2019-01-28T22:17:43.814Z,3.40
2019-01-28T22:20:13.237Z,3.40
2019-01-28T22:22:41.809Z,3.40
2019-01-28T22:25:11.621Z,3.40
2019-01-28T22:27:40.186Z,3.40
2019-01-28T22:30:12.586Z,3.40
2019-01-28T22:32:41.169Z,3.40
2019-01-28T22:35:10.062Z,3.30
2019-01-28T22:37:38.629Z,3.30
2019-01-28T22:40:07.938Z,3.30
2019-01-28T22:42:36.502Z,3.30
2019-01-28T22:45:07.474Z,3.30
2019-01-28T22:47:36.083Z,3.30
2019-01-28T22:50:07.402Z,3.30
2019-01-28T22:52:35.966Z,3.30
2019-01-28T22:55:05.286Z,3.30
2019-01-28T22:57:33.873Z,3.30
2019-01-28T23:00:02.614Z,3.30
2019-01-28T23:02:31.262Z,3.30
2019-01-28T23:04:59.833Z,3.30
2019-01-28T23:07:28.413Z,3.30
2019-01-28T23:09:56.995Z,3.30
2019-01-28T23:12:25.553Z,3.40
2019-01-28T23:14:54.185Z,3.30
2019-01-28T23:17:22.802Z,3.10
2019-01-28T23:19:51.370Z,3.10
2019-01-28T23:22:19.949Z,3.10
2019-01-28T23:24:50.041Z,3.10
2019-01-28T23:27:18.662Z,3.10
2019-01-28T23:29:47.277Z,3.00
2019-01-28T23:32:15.862Z,2.90
2019-01-28T23:34:44.437Z,2.70
2019-01-28T23:37:13.008Z,2.70
2019-01-28T23:39:41.574Z,2.70
2019-01-28T23:42:10.154Z,2.70
2019-01-28T23:44:38.714Z,2.60
2019-01-28T23:47:07.269Z,2.50
2019-01-28T23:49:35.829Z,2.50
2019-01-28T23:52:04.437Z,2.40
2019-01-28T23:54:33.002Z,2.40
2019-01-28T23:57:01.581Z,2.30
2019-01-28T23:59:30.158Z,2.30
